createdAt,value
2022-12-14T00:01:25.755Z,28.92
2022-12-14T00:03:53.637Z,24.80
2022-12-14T00:06:25.460Z,25.55
2022-12-14T00:08:53.749Z,27.10
2022-12-14T00:11:22.283Z,28.20
2022-12-14T00:13:57.579Z,30.63
2022-12-14T00:16:26.131Z,26.98
2022-12-14T00:18:54.768Z,26.00
2022-12-14T00:21:22.130Z,24.52
2022-12-14T00:23:50.557Z,26.20
2022-12-14T00:26:18.259Z,27.13
2022-12-14T00:28:46.071Z,28.63
2022-12-14T00:31:13.104Z,27.63
2022-12-14T00:33:39.729Z,27.55
2022-12-14T00:36:08.096Z,26.25
2022-12-14T00:38:34.711Z,25.30
2022-12-14T00:41:01.667Z,26.02
2022-12-14T00:43:28.212Z,25.45
2022-12-14T00:45:55.338Z,27.75
2022-12-14T00:48:26.286Z,23.83
2022-12-14T00:50:54.605Z,26.05
2022-12-14T00:53:21.906Z,28.17
2022-12-14T00:55:52.646Z,27.67
2022-12-14T00:58:21.723Z,29.45
2022-12-14T01:00:57.857Z,31.88
2022-12-14T01:03:24.798Z,28.00
2022-12-14T01:05:53.799Z,34.20
2022-12-14T01:08:20.734Z,32.47
2022-12-14T01:10:47.212Z,26.80
2022-12-14T01:13:13.686Z,29.42
2022-12-14T01:15:40.206Z,31.73
2022-12-14T01:18:06.691Z,34.50
2022-12-14T01:20:33.158Z,54.65
2022-12-14T01:22:59.584Z,63.17
2022-12-14T01:25:28.483Z,38.58
2022-12-14T01:27:54.963Z,28.45
2022-12-14T01:30:21.402Z,28.73
2022-12-14T01:32:47.874Z,30.38
2022-12-14T01:35:17.281Z,27.98
2022-12-14T01:37:43.754Z,29.85
2022-12-14T01:40:12.972Z,30.10
2022-12-14T01:42:42.114Z,28.75
2022-12-14T01:45:18.165Z,29.50
2022-12-14T01:47:49.727Z,27.83
2022-12-14T01:50:25.071Z,27.58
2022-12-14T01:52:56.571Z,48.70
2022-12-14T01:55:32.042Z,145.77
2022-12-14T01:58:02.242Z,130.52
2022-12-14T02:00:31.580Z,53.17
2022-12-14T02:03:06.961Z,42.65
2022-12-14T02:05:38.046Z,74.47
2022-12-14T02:08:06.031Z,107.68
2022-12-14T02:10:33.010Z,51.25
2022-12-14T02:13:05.593Z,82.60
2022-12-14T02:15:33.627Z,54.35
2022-12-14T02:18:03.525Z,64.72
2022-12-14T02:20:40.689Z,68.88
2022-12-14T02:23:20.648Z,48.05
2022-12-14T02:26:29.196Z,39.65
2022-12-14T02:29:01.659Z,29.65
2022-12-14T02:31:42.356Z,41.23
2022-12-14T02:34:23.035Z,37.10
2022-12-14T02:37:18.478Z,33.83
2022-12-14T02:40:03.794Z,29.40
2022-12-14T02:43:20.761Z,30.52
2022-12-14T02:46:11.493Z,26.98
2022-12-14T02:48:45.597Z,26.83
2022-12-14T02:51:45.428Z,27.88
2022-12-14T02:54:23.835Z,33.22
2022-12-14T02:56:56.557Z,26.27
2022-12-14T02:59:24.531Z,28.88
2022-12-14T03:01:52.762Z,29.52
2022-12-14T03:04:20.438Z,27.75
2022-12-14T03:07:02.668Z,30.35
2022-12-14T03:09:31.141Z,32.65
2022-12-14T03:12:06.084Z,29.70
2022-12-14T03:14:38.611Z,32.80
2022-12-14T03:17:16.399Z,29.47
2022-12-14T03:20:07.507Z,30.15
2022-12-14T03:22:40.203Z,27.27
2022-12-14T03:25:16.107Z,29.60
2022-12-14T03:27:51.441Z,29.85
2022-12-14T03:30:51.198Z,31.95
2022-12-14T03:33:15.079Z,31.00
2022-12-14T03:38:27.064Z,27.60
2022-12-14T03:41:27.076Z,28.67
2022-12-14T03:44:05.171Z,29.27
2022-12-14T03:47:11.397Z,28.20
2022-12-14T03:50:11.853Z,27.90
2022-12-14T03:52:44.436Z,34.22
2022-12-14T03:55:34.661Z,33.60
2022-12-14T03:58:33.450Z,27.42
2022-12-14T04:01:31.076Z,28.77
2022-12-14T04:03:57.585Z,29.58
2022-12-14T04:06:32.024Z,27.67
2022-12-14T04:09:13.763Z,27.30
2022-12-14T04:12:05.852Z,31.33
2022-12-14T04:14:55.558Z,31.25
2022-12-14T04:17:53.009Z,26.95
2022-12-14T04:20:27.993Z,29.05
2022-12-14T04:23:03.784Z,29.58
2022-12-14T04:25:54.366Z,29.63
2022-12-14T04:28:53.949Z,29.20
2022-12-14T04:31:25.367Z,32.28
2022-12-14T04:33:58.380Z,31.30
2022-12-14T04:36:33.757Z,32.67
2022-12-14T04:39:06.269Z,29.80
2022-12-14T04:41:40.284Z,32.00
2022-12-14T04:44:18.327Z,27.70
2022-12-14T04:46:46.667Z,31.00
2022-12-14T04:49:24.289Z,32.45
2022-12-14T04:51:53.728Z,31.00
2022-12-14T04:54:48.561Z,28.23
2022-12-14T04:57:31.962Z,30.23
2022-12-14T05:00:00.433Z,30.98
2022-12-14T05:03:03.328Z,27.17
2022-12-14T05:05:56.271Z,27.58
2022-12-14T05:08:28.850Z,28.33
2022-12-14T05:11:51.968Z,32.83
2022-12-14T05:14:17.990Z,28.05
2022-12-14T05:16:44.565Z,27.95
2022-12-14T05:19:15.822Z,27.77
2022-12-14T05:21:48.189Z,24.90
2022-12-14T05:24:16.111Z,25.20
2022-12-14T05:26:43.876Z,25.23
2022-12-14T05:29:10.479Z,27.45
2022-12-14T05:31:37.025Z,23.92
2022-12-14T05:34:03.724Z,26.85
2022-12-14T05:36:30.126Z,24.30
2022-12-14T05:38:56.547Z,27.08
2022-12-14T05:41:23.010Z,27.83
2022-12-14T05:43:49.423Z,25.73
2022-12-14T05:46:18.449Z,25.67
2022-12-14T05:48:49.196Z,25.10
2022-12-14T05:51:16.350Z,26.60
2022-12-14T05:53:45.274Z,24.02
2022-12-14T05:56:12.264Z,30.83
2022-12-14T05:58:39.479Z,27.17
2022-12-14T06:01:11.518Z,25.65
2022-12-14T06:03:40.675Z,23.27
2022-12-14T06:06:12.016Z,25.33
2022-12-14T06:08:42.052Z,25.98
2022-12-14T06:11:20.644Z,25.58
2022-12-14T06:13:47.909Z,25.85
2022-12-14T06:16:25.263Z,26.98
2022-12-14T06:18:54.479Z,26.85
2022-12-14T06:21:32.711Z,26.70
2022-12-14T06:24:00.122Z,26.60
2022-12-14T06:26:30.730Z,26.40
2022-12-14T06:28:58.149Z,28.55
2022-12-14T06:31:27.943Z,28.38
2022-12-14T06:33:55.036Z,26.40
2022-12-14T06:36:35.939Z,27.35
2022-12-14T06:39:08.556Z,26.38
2022-12-14T06:41:35.056Z,29.10
2022-12-14T06:44:06.878Z,29.08
2022-12-14T06:46:36.131Z,24.70
2022-12-14T06:49:07.239Z,30.58
2022-12-14T06:51:39.451Z,25.90
2022-12-14T06:54:08.653Z,29.02
2022-12-14T06:56:35.426Z,30.00
2022-12-14T06:59:05.476Z,24.73
2022-12-14T07:01:32.122Z,26.67
2022-12-14T07:03:59.656Z,27.52
2022-12-14T07:06:28.680Z,27.75
2022-12-14T07:09:00.308Z,27.23
2022-12-14T07:11:28.175Z,30.38
2022-12-14T07:13:55.634Z,29.20
2022-12-14T07:16:26.159Z,27.70
2022-12-14T07:18:54.360Z,27.10
2022-12-14T07:21:22.698Z,28.75
2022-12-14T07:23:49.872Z,28.55
2022-12-14T07:26:22.398Z,27.13
2022-12-14T07:28:50.020Z,26.87
2022-12-14T07:31:18.346Z,26.10
2022-12-14T07:33:45.112Z,28.70
2022-12-14T07:36:15.880Z,28.25
2022-12-14T07:38:44.241Z,29.15
2022-12-14T07:41:23.159Z,30.50
2022-12-14T07:43:54.632Z,29.25
2022-12-14T07:46:23.554Z,28.55
2022-12-14T07:48:57.545Z,27.33
2022-12-14T07:51:27.241Z,28.05
2022-12-14T07:53:54.709Z,26.00
2022-12-14T07:56:25.010Z,28.05
2022-12-14T07:58:58.241Z,26.05
2022-12-14T08:01:27.554Z,23.55
2022-12-14T08:04:11.751Z,29.00
2022-12-14T08:06:39.323Z,28.33
2022-12-14T08:09:09.923Z,28.67
2022-12-14T08:11:39.436Z,27.27
2022-12-14T08:14:09.370Z,26.38
2022-12-14T08:16:35.987Z,28.40
2022-12-14T08:19:02.842Z,27.35
2022-12-14T08:21:32.923Z,28.75
2022-12-14T08:23:59.959Z,27.08
2022-12-14T08:26:33.332Z,24.70
2022-12-14T08:29:05.052Z,27.70
2022-12-14T08:31:32.920Z,26.25
2022-12-14T08:34:00.560Z,25.00
2022-12-14T08:36:32.761Z,26.50
2022-12-14T08:39:01.818Z,25.65
2022-12-14T08:41:31.015Z,25.05
2022-12-14T08:43:59.947Z,24.10
2022-12-14T08:46:31.303Z,26.70
2022-12-14T08:49:00.892Z,27.02
2022-12-14T08:51:28.850Z,23.63
2022-12-14T08:53:59.914Z,26.65
2022-12-14T08:56:27.947Z,27.15
2022-12-14T08:58:54.910Z,22.90
2022-12-14T09:01:32.336Z,22.92
2022-12-14T09:04:03.817Z,23.58
2022-12-14T09:06:31.143Z,25.65
2022-12-14T09:08:58.115Z,29.05
2022-12-14T09:11:26.909Z,24.83
2022-12-14T09:13:54.636Z,25.40
2022-12-14T09:16:23.667Z,27.48
2022-12-14T09:18:50.594Z,30.00
2022-12-14T09:21:18.100Z,27.95
2022-12-14T09:23:45.729Z,24.95
2022-12-14T09:26:19.846Z,24.33
2022-12-14T09:28:50.206Z,28.00
2022-12-14T09:31:21.018Z,25.20
2022-12-14T09:33:50.715Z,26.25
2022-12-14T09:36:22.303Z,23.58
2022-12-14T09:38:55.140Z,25.30
2022-12-14T09:41:33.471Z,26.23
2022-12-14T09:44:00.123Z,31.35
2022-12-14T09:46:50.861Z,37.03
2022-12-14T09:49:39.883Z,30.38
2022-12-14T09:52:16.310Z,30.40
2022-12-14T09:54:45.945Z,36.45
2022-12-14T09:57:19.662Z,33.35
2022-12-14T09:59:46.299Z,31.10
2022-12-14T10:02:39.243Z,29.98
2022-12-14T10:05:21.110Z,28.50
2022-12-14T10:08:08.443Z,28.50
2022-12-14T10:10:56.632Z,30.63
2022-12-14T10:14:00.783Z,30.20
2022-12-14T10:16:41.067Z,27.90
2022-12-14T10:19:26.049Z,31.67
2022-12-14T10:22:06.798Z,29.38
2022-12-14T10:24:42.565Z,29.73
2022-12-14T10:27:14.208Z,31.25
2022-12-14T10:29:47.401Z,30.95
2022-12-14T10:32:22.364Z,31.85
2022-12-14T10:34:49.799Z,31.77
2022-12-14T10:37:23.965Z,33.40
2022-12-14T10:40:14.070Z,32.80
2022-12-14T10:43:05.024Z,60.45
2022-12-14T10:45:46.975Z,40.60
2022-12-14T10:48:33.423Z,49.60
2022-12-14T10:51:11.010Z,32.45
2022-12-14T10:53:41.754Z,30.77
2022-12-14T10:56:16.979Z,36.35
2022-12-14T10:58:43.693Z,30.33
2022-12-14T11:01:14.967Z,36.15
2022-12-14T11:03:43.794Z,35.08
2022-12-14T11:06:19.672Z,34.65
2022-12-14T11:08:49.218Z,35.10
2022-12-14T11:11:19.768Z,31.35
2022-12-14T11:13:56.300Z,34.53
2022-12-14T11:16:36.514Z,42.67
2022-12-14T11:19:07.836Z,50.25
2022-12-14T11:21:38.811Z,33.25
2022-12-14T11:24:05.879Z,37.67
2022-12-14T11:26:40.532Z,37.45
2022-12-14T11:29:18.676Z,30.42
2022-12-14T11:31:48.007Z,50.00
2022-12-14T11:34:29.256Z,51.63
2022-12-14T11:36:55.781Z,33.17
2022-12-14T11:39:25.088Z,38.13
2022-12-14T11:41:57.786Z,41.08
2022-12-14T11:44:33.135Z,45.80
2022-12-14T11:47:00.208Z,34.95
2022-12-14T11:49:33.613Z,34.65
2022-12-14T11:52:06.034Z,37.08
2022-12-14T11:54:49.777Z,36.20
2022-12-14T11:57:51.692Z,32.72
2022-12-14T12:00:29.496Z,36.88
2022-12-14T12:03:06.568Z,34.78
2022-12-14T12:05:39.186Z,33.90
2022-12-14T12:08:16.118Z,31.33
2022-12-14T12:10:50.084Z,33.08
2022-12-14T12:13:35.193Z,33.72
2022-12-14T12:16:05.856Z,34.20
2022-12-14T12:18:46.159Z,31.02
2022-12-14T12:21:21.516Z,37.47
2022-12-14T12:24:12.420Z,31.55
2022-12-14T12:26:57.937Z,30.60
2022-12-14T12:29:37.969Z,32.65
2022-12-14T12:32:15.877Z,31.08
2022-12-14T12:35:12.226Z,34.25
2022-12-14T12:37:42.132Z,33.28
2022-12-14T12:40:22.106Z,35.95
2022-12-14T12:43:11.905Z,41.35
2022-12-14T12:45:45.686Z,36.78
2022-12-14T12:48:30.710Z,31.83
2022-12-14T12:51:03.954Z,32.72
2022-12-14T12:53:35.910Z,32.58
2022-12-14T12:56:12.635Z,36.05
2022-12-14T12:58:40.770Z,33.05
2022-12-14T13:01:23.233Z,34.75
2022-12-14T13:03:52.995Z,31.98
2022-12-14T13:06:31.262Z,38.70
2022-12-14T13:09:00.199Z,33.10
2022-12-14T13:11:38.620Z,32.85
2022-12-14T13:14:31.086Z,37.33
2022-12-14T13:17:03.202Z,38.83
2022-12-14T13:19:50.371Z,32.85
2022-12-14T13:22:27.967Z,38.67
2022-12-14T13:24:59.843Z,39.00
2022-12-14T13:27:49.702Z,43.50
2022-12-14T13:30:27.993Z,165.02
2022-12-14T13:33:13.174Z,53.63
2022-12-14T13:35:49.504Z,37.88
2022-12-14T13:38:38.169Z,39.33
2022-12-14T13:41:26.860Z,40.05
2022-12-14T13:44:10.949Z,40.15
2022-12-14T13:46:40.230Z,36.50
2022-12-14T13:49:17.796Z,41.72
2022-12-14T13:51:50.233Z,38.85
2022-12-14T13:54:31.318Z,36.72
2022-12-14T13:57:08.693Z,40.15
2022-12-14T13:59:49.063Z,40.90
2022-12-14T14:02:27.786Z,34.45
2022-12-14T14:05:19.434Z,37.28
2022-12-14T14:08:00.704Z,38.45
2022-12-14T14:10:33.878Z,38.67
2022-12-14T14:13:21.690Z,37.40
2022-12-14T14:16:27.567Z,36.50
2022-12-14T14:19:01.428Z,36.85
2022-12-14T14:25:09.418Z,38.38
2022-12-14T14:27:38.799Z,37.72
2022-12-14T14:30:33.290Z,35.75
2022-12-14T14:33:35.788Z,38.17
2022-12-14T14:35:49.914Z,37.13
2022-12-14T14:38:32.294Z,35.95
2022-12-14T14:41:16.947Z,33.40
2022-12-14T14:43:54.144Z,37.30
2022-12-14T14:46:36.168Z,40.22
2022-12-14T14:49:04.063Z,35.72
2022-12-14T14:51:37.306Z,38.40
2022-12-14T14:54:37.638Z,47.05
2022-12-14T14:57:02.674Z,50.83
2022-12-14T14:59:50.765Z,41.05
2022-12-14T15:02:42.416Z,39.38
2022-12-14T15:08:18.505Z,41.50
2022-12-14T15:10:48.255Z,43.40
2022-12-14T15:13:29.993Z,41.60
2022-12-14T15:15:57.029Z,38.38
2022-12-14T15:18:31.678Z,48.10
2022-12-14T15:21:01.170Z,44.67
2022-12-14T15:23:38.940Z,42.85
2022-12-14T15:26:16.856Z,54.30
2022-12-14T15:28:48.274Z,43.80
2022-12-14T15:31:15.063Z,45.78
2022-12-14T15:33:43.304Z,44.08
2022-12-14T15:36:20.032Z,45.50
2022-12-14T15:38:55.577Z,44.10
2022-12-14T15:41:25.022Z,45.08
2022-12-14T15:43:55.063Z,46.60
2022-12-14T15:46:30.314Z,49.67
2022-12-14T15:49:03.681Z,77.85
2022-12-14T15:51:35.404Z,56.92
2022-12-14T15:54:04.631Z,58.28
2022-12-14T15:56:34.679Z,51.42
2022-12-14T15:59:13.893Z,55.03
2022-12-14T16:01:54.204Z,51.55
2022-12-14T16:04:27.633Z,54.93
2022-12-14T16:07:12.220Z,51.03
2022-12-14T16:09:49.872Z,45.95
2022-12-14T16:12:19.814Z,51.80
2022-12-14T16:14:50.223Z,57.78
2022-12-14T16:17:22.025Z,55.53
2022-12-14T16:20:01.371Z,52.65
2022-12-14T16:22:34.865Z,55.33
2022-12-14T16:25:03.453Z,75.75
2022-12-14T16:27:31.236Z,50.75
2022-12-14T16:30:16.611Z,54.55
2022-12-14T16:32:45.182Z,51.72
2022-12-14T16:35:23.077Z,49.67
2022-12-14T16:37:55.689Z,60.45
2022-12-14T16:41:00.426Z,52.00
2022-12-14T16:43:41.508Z,56.95
2022-12-14T16:46:12.233Z,46.88
2022-12-14T16:48:41.795Z,49.88
2022-12-14T16:51:33.053Z,46.17
2022-12-14T16:54:31.495Z,45.65
2022-12-14T16:57:19.895Z,43.65
2022-12-14T16:59:48.320Z,47.30
2022-12-14T17:02:34.240Z,47.13
2022-12-14T17:05:04.327Z,49.50
2022-12-14T17:07:33.162Z,46.55
2022-12-14T17:09:59.889Z,49.70
2022-12-14T17:12:26.769Z,48.45
2022-12-14T17:14:55.849Z,63.70
2022-12-14T17:17:32.213Z,66.82
2022-12-14T17:19:59.379Z,59.42
2022-12-14T17:22:30.129Z,55.75
2022-12-14T17:24:57.079Z,55.88
2022-12-14T17:27:26.612Z,56.13
2022-12-14T17:29:54.265Z,53.65
2022-12-14T17:32:22.413Z,52.13
2022-12-14T17:34:49.106Z,50.42
2022-12-14T17:37:18.323Z,47.67
2022-12-14T17:39:44.908Z,48.40
2022-12-14T17:42:13.899Z,58.70
2022-12-14T17:44:42.866Z,54.50
2022-12-14T17:47:15.733Z,49.10
2022-12-14T17:49:43.043Z,53.13
2022-12-14T17:52:20.448Z,54.20
2022-12-14T17:54:47.439Z,48.53
2022-12-14T17:57:17.066Z,49.75
2022-12-14T17:59:47.683Z,55.53
2022-12-14T18:02:27.799Z,54.70
2022-12-14T18:04:59.315Z,52.38
2022-12-14T18:07:25.948Z,54.35
2022-12-14T18:09:55.349Z,56.33
2022-12-14T18:12:24.329Z,57.33
2022-12-14T18:14:53.963Z,57.90
2022-12-14T18:17:23.064Z,63.47
2022-12-14T18:19:49.867Z,55.13
2022-12-14T18:22:16.520Z,59.42
2022-12-14T18:24:43.084Z,56.92
2022-12-14T18:27:12.124Z,63.60
2022-12-14T18:29:38.934Z,66.05
2022-12-14T18:32:05.616Z,62.25
2022-12-14T18:34:32.254Z,66.55
2022-12-14T18:36:58.779Z,76.47
2022-12-14T18:39:25.347Z,84.53
2022-12-14T18:41:51.921Z,84.72
2022-12-14T18:44:18.488Z,87.43
2022-12-14T18:46:49.221Z,102.38
2022-12-14T18:49:16.274Z,99.53
2022-12-14T18:51:45.388Z,98.53
2022-12-14T18:54:12.151Z,81.90
2022-12-14T18:56:41.373Z,86.15
2022-12-14T18:59:08.017Z,74.18
2022-12-14T19:01:36.960Z,75.65
2022-12-14T19:04:04.117Z,68.85
2022-12-14T19:06:46.392Z,70.88
2022-12-14T19:09:14.412Z,66.55
2022-12-14T19:11:44.509Z,84.03
2022-12-14T19:14:11.636Z,73.80
2022-12-14T19:16:38.397Z,75.93
2022-12-14T19:19:05.187Z,75.57
2022-12-14T19:21:31.901Z,80.65
2022-12-14T19:23:59.868Z,79.70
2022-12-14T19:26:29.424Z,85.68
2022-12-14T19:28:56.394Z,77.43
2022-12-14T19:31:23.554Z,70.57
2022-12-14T19:33:50.197Z,74.07
2022-12-14T19:36:16.779Z,73.78
2022-12-14T19:38:44.830Z,75.10
2022-12-14T19:41:17.725Z,69.85
2022-12-14T19:43:44.376Z,71.88
2022-12-14T19:46:12.961Z,68.80
2022-12-14T19:48:40.361Z,66.18
2022-12-14T19:51:10.614Z,72.40
2022-12-14T19:53:37.726Z,64.15
2022-12-14T19:56:04.661Z,80.53
2022-12-14T19:58:31.617Z,63.15
2022-12-14T20:00:58.202Z,63.30
2022-12-14T20:03:25.135Z,74.20
2022-12-14T20:05:58.632Z,67.97
2022-12-14T20:08:27.112Z,46.60
2022-12-14T20:10:53.884Z,48.80
2022-12-14T20:13:22.957Z,50.33
2022-12-14T20:15:58.205Z,60.33
2022-12-14T20:18:26.104Z,39.70
2022-12-14T20:20:53.191Z,40.42
2022-12-14T20:23:21.620Z,38.28
2022-12-14T20:25:49.153Z,39.80
2022-12-14T20:28:15.875Z,39.28
2022-12-14T20:30:47.066Z,39.25
2022-12-14T20:33:14.119Z,36.33
2022-12-14T20:35:41.844Z,37.90
2022-12-14T20:38:08.424Z,41.72
2022-12-14T20:40:39.219Z,48.88
2022-12-14T20:43:07.220Z,46.00
2022-12-14T20:45:41.689Z,45.78
2022-12-14T20:48:09.064Z,51.90
2022-12-14T20:50:39.480Z,43.13
2022-12-14T20:53:06.639Z,48.80
2022-12-14T20:55:34.266Z,40.90
2022-12-14T20:58:00.983Z,40.00
2022-12-14T21:00:30.407Z,41.38
2022-12-14T21:02:59.565Z,37.33
2022-12-14T21:05:31.149Z,38.40
2022-12-14T21:07:57.723Z,36.67
2022-12-14T21:10:24.319Z,38.95
2022-12-14T21:12:55.738Z,35.63
2022-12-14T21:15:22.345Z,34.60
2022-12-14T21:17:49.040Z,36.15
2022-12-14T21:20:15.657Z,34.58
2022-12-14T21:22:42.445Z,35.45
2022-12-14T21:25:09.365Z,34.60
2022-12-14T21:27:38.566Z,36.20
2022-12-14T21:30:10.975Z,34.60
2022-12-14T21:32:40.704Z,32.97
2022-12-14T21:35:10.616Z,35.63
2022-12-14T21:37:38.747Z,39.30
2022-12-14T21:40:06.063Z,33.95
2022-12-14T21:42:32.633Z,33.95
2022-12-14T21:44:59.237Z,31.30
2022-12-14T21:47:30.641Z,33.35
2022-12-14T21:49:59.671Z,33.05
2022-12-14T21:52:28.399Z,33.97
2022-12-14T21:54:58.989Z,33.85
2022-12-14T21:57:49.577Z,34.80
2022-12-14T22:00:18.550Z,32.80
2022-12-14T22:02:45.270Z,34.28
2022-12-14T22:05:14.867Z,31.77
2022-12-14T22:07:41.884Z,32.95
2022-12-14T22:10:08.456Z,30.88
2022-12-14T22:12:34.997Z,30.92
2022-12-14T22:15:01.581Z,29.48
2022-12-14T22:17:28.143Z,31.55
2022-12-14T22:19:55.261Z,33.08
2022-12-14T22:22:22.444Z,31.80
2022-12-14T22:24:51.602Z,29.95
2022-12-14T22:27:21.666Z,29.95
2022-12-14T22:29:48.244Z,27.83
2022-12-14T22:32:15.608Z,28.55
2022-12-14T22:34:42.384Z,29.27
2022-12-14T22:37:16.804Z,31.38
2022-12-14T22:39:43.509Z,31.27
2022-12-14T22:42:13.268Z,31.30
2022-12-14T22:44:40.333Z,31.63
2022-12-14T22:47:06.945Z,29.52
2022-12-14T22:49:33.534Z,32.33
2022-12-14T22:52:00.089Z,29.63
2022-12-14T22:54:27.919Z,27.17
2022-12-14T22:57:02.724Z,27.10
2022-12-14T22:59:43.437Z,28.73
2022-12-14T23:02:10.340Z,26.83
2022-12-14T23:04:38.278Z,28.30
2022-12-14T23:07:05.926Z,26.50
2022-12-14T23:09:51.079Z,27.77
2022-12-14T23:12:36.268Z,25.85
2022-12-14T23:15:21.282Z,26.17
2022-12-14T23:18:08.880Z,27.08
2022-12-14T23:20:57.160Z,26.83
2022-12-14T23:23:42.091Z,29.35
2022-12-14T23:26:26.908Z,30.00
2022-12-14T23:29:12.130Z,27.63
2022-12-14T23:31:56.893Z,27.05
2022-12-14T23:34:41.690Z,27.38
2022-12-14T23:37:26.775Z,30.60
2022-12-14T23:40:12.138Z,31.40
2022-12-14T23:42:57.561Z,31.00
2022-12-14T23:45:42.320Z,30.08
2022-12-14T23:48:27.535Z,32.75
2022-12-14T23:51:12.834Z,31.20
2022-12-14T23:53:58.228Z,33.25
2022-12-14T23:56:43.642Z,31.40
2022-12-14T23:59:32.260Z,30.15
